Time;durP1;ratioP1;P1;durP2;ratioP2;P2;SDS_P1;SDS_P2;PMS_P1;PMS_P2;Temp;Humidity;BMP_temperature;BMP_pressure;BME280_temperature;BME280_humidity;BME280_pressure;Samples;Min_cycle;Max_cycle;Signal;HPM_P1;HPM_P2
2023/12/03 00:00:07;;;;;;;0.10;0.10;;;;;;;-6.01;100.00;96121.09;1038967;28;20119;-75
2023/12/03 00:00:39;;;;;;;0.00;0.00;;;;;;;-6.04;100.00;96122.19;1037773;28;20040;-76
2023/12/03 00:01:09;;;;;;;0.20;0.20;;;;;;;-6.00;100.00;96128.59;1026968;28;20085;-75
2023/12/03 00:01:40;;;;;;;0.67;0.67;;;;;;;-6.02;100.00;96125.38;1034675;28;20103;-74
2023/12/03 00:02:12;;;;;;;0.83;0.83;;;;;;;-5.99;100.00;96132.75;1034188;28;20030;-75
2023/12/03 00:02:42;;;;;;;0.55;0.55;;;;;;;-6.05;100.00;96124.88;1031101;28;20026;-75
2023/12/03 00:03:13;;;;;;;0.53;0.53;;;;;;;-6.06;100.00;96124.09;1034889;28;20029;-75
2023/12/03 00:03:43;;;;;;;1.30;1.30;;;;;;;-6.03;100.00;96136.56;1030594;28;20030;-75
2023/12/03 00:04:13;;;;;;;0.30;0.30;;;;;;;-6.05;100.00;96127.44;1022854;29;20023;-75
2023/12/03 00:04:44;;;;;;;0.10;0.10;;;;;;;-6.02;100.00;96133.06;1034931;28;20474;-75
2023/12/03 00:05:14;;;;;;;1.63;0.97;;;;;;;-6.02;100.00;96140.72;1039309;28;20043;-76
2023/12/03 00:05:45;;;;;;;0.90;0.83;;;;;;;-6.04;100.00;96129.84;1038730;28;20025;-75
2023/12/03 00:06:15;;;;;;;3.37;0.73;;;;;;;-6.05;100.00;96141.00;1034751;28;20029;-76
2023/12/03 00:06:46;;;;;;;0.43;0.43;;;;;;;-6.09;100.00;96126.94;1034852;28;20584;-75
2023/12/03 00:07:16;;;;;;;0.47;0.47;;;;;;;-6.09;100.00;96129.50;1028771;28;20096;-76
2023/12/03 00:07:48;;;;;;;1.03;0.87;;;;;;;-6.05;100.00;96138.47;1026767;28;20022;-75
2023/12/03 00:08:18;;;;;;;2.58;0.93;;;;;;;-6.05;100.00;96140.22;1038741;28;20036;-76
2023/12/03 00:08:49;;;;;;;0.30;0.30;;;;;;;-6.08;100.00;96143.84;1030696;28;20029;-75
2023/12/03 00:09:19;;;;;;;0.77;0.77;;;;;;;-6.12;100.00;96129.78;1031009;28;20482;-75
2023/12/03 00:09:49;;;;;;;0.27;0.27;;;;;;;-6.09;100.00;96138.91;1030743;28;20022;-75
2023/12/03 00:10:20;;;;;;;1.60;0.50;;;;;;;-6.08;100.00;96145.63;1034677;28;20068;-75
2023/12/03 00:10:51;;;;;;;0.57;0.57;;;;;;;-6.11;100.00;96133.16;1034849;28;20141;-75
2023/12/03 00:11:22;;;;;;;0.40;0.40;;;;;;;-6.08;100.00;96146.41;1038839;28;20026;-75
2023/12/03 00:11:52;;;;;;;0.60;0.40;;;;;;;-6.08;100.00;96145.63;1038316;28;20029;-75
2023/12/03 00:12:23;;;;;;;1.50;1.40;;;;;;;-6.09;100.00;96139.72;1037059;28;20091;-75
2023/12/03 00:12:53;;;;;;;0.33;0.33;;;;;;;-6.08;100.00;96146.41;1038847;28;20033;-75
2023/12/03 00:13:24;;;;;;;0.00;0.00;;;;;;;-6.07;100.00;96148.03;1035052;28;20030;-75
2023/12/03 00:13:54;;;;;;;0.50;0.50;;;;;;;-6.05;100.00;96143.56;1030907;28;20034;-74
2023/12/03 00:14:25;;;;;;;0.13;0.13;;;;;;;-6.08;100.00;96136.19;1038987;28;20036;-75
2023/12/03 00:14:55;;;;;;;0.47;0.47;;;;;;;-6.03;100.00;96133.22;1039255;28;20037;-75
2023/12/03 00:15:26;;;;;;;1.33;1.23;;;;;;;-6.07;100.00;96142.09;1034835;28;20424;-75
2023/12/03 00:15:56;;;;;;;0.23;0.23;;;;;;;-6.06;100.00;96141.19;1037880;28;20543;-75
2023/12/03 00:16:27;;;;;;;0.87;0.87;;;;;;;-6.05;100.00;96140.22;1030796;28;20045;-75
2023/12/03 00:16:57;;;;;;;0.57;0.57;;;;;;;-6.07;100.00;96142.94;1034744;28;20045;-75
2023/12/03 00:17:28;;;;;;;0.00;0.00;;;;;;;-6.10;100.00;96143.22;1026922;28;20039;-75
2023/12/03 00:17:59;;;;;;;0.40;0.40;;;;;;;-6.12;100.00;96142.56;1026764;28;20046;-75
2023/12/03 00:18:29;;;;;;;0.10;0.10;;;;;;;-6.13;100.00;96143.53;1034733;28;20049;-75
2023/12/03 00:19:00;;;;;;;0.60;0.60;;;;;;;-6.12;100.00;96145.13;1034794;28;20026;-74
2023/12/03 00:19:30;;;;;;;0.40;0.40;;;;;;;-6.10;100.00;96137.28;1026756;28;20026;-75
2023/12/03 00:20:01;;;;;;;0.10;0.10;;;;;;;-6.13;100.00;96138.41;1026654;28;20027;-75
2023/12/03 00:20:31;;;;;;;0.00;0.00;;;;;;;-6.10;100.00;96142.41;1025337;28;20100;-76
2023/12/03 00:21:02;;;;;;;0.47;0.47;;;;;;;-6.13;100.00;96128.19;1034621;28;20022;-74
2023/12/03 00:21:32;;;;;;;0.20;0.20;;;;;;;-6.11;100.00;96139.06;1035312;28;20029;-75
2023/12/03 00:22:03;;;;;;;0.10;0.10;;;;;;;-6.08;100.00;96143.84;1034125;28;20037;-75
2023/12/03 00:22:33;;;;;;;2.90;0.80;;;;;;;-6.12;100.00;96144.31;1034529;28;20036;-75
2023/12/03 00:23:04;;;;;;;0.10;0.10;;;;;;;-6.11;100.00;96140.81;1035100;28;20060;-75
2023/12/03 00:23:34;;;;;;;1.03;0.97;;;;;;;-6.18;100.00;96135.50;1034941;28;20037;-74
2023/12/03 00:24:05;;;;;;;0.30;0.30;;;;;;;-6.16;100.00;96138.72;1026522;28;20023;-75
2023/12/03 00:24:35;;;;;;;0.00;0.00;;;;;;;-6.17;100.00;96143.03;1030956;28;20080;-75
2023/12/03 00:25:06;;;;;;;0.67;0.67;;;;;;;-6.15;100.00;96137.75;1026681;28;20023;-75
2023/12/03 00:25:37;;;;;;;0.93;0.45;;;;;;;-6.19;100.00;96132.13;1035328;28;20030;-75
2023/12/03 00:26:07;;;;;;;2.20;0.67;;;;;;;-6.28;100.00;96116.91;1037317;28;20029;-75
2023/12/03 00:26:38;;;;;;;1.60;0.73;;;;;;;-6.20;100.00;96139.97;1034889;28;20029;-75
2023/12/03 00:27:08;;;;;;;1.00;1.00;;;;;;;-6.23;100.00;96135.16;1035232;28;20374;-75
2023/12/03 00:27:39;;;;;;;0.27;0.27;;;;;;;-6.20;100.00;96142.50;1042973;28;20202;-75
2023/12/03 00:28:09;;;;;;;0.00;0.00;;;;;;;-6.22;100.00;96139.28;1046894;28;20048;-75
2023/12/03 00:28:40;;;;;;;0.00;0.00;;;;;;;-6.22;100.00;96131.63;1039063;28;20025;-74
2023/12/03 00:29:10;;;;;;;0.93;0.93;;;;;;;-6.21;100.00;96139.13;1034467;28;20033;-74
2023/12/03 00:29:41;;;;;;;0.57;0.57;;;;;;;-6.24;100.00;96136.06;1034921;28;20029;-75
2023/12/03 00:30:12;;;;;;;1.43;0.77;;;;;;;-6.25;100.00;96131.94;1033970;28;20052;-74
2023/12/03 00:30:43;;;;;;;0.55;0.55;;;;;;;-6.33;100.00;96134.44;1025619;28;20538;-75
2023/12/03 00:31:13;;;;;;;0.40;0.40;;;;;;;-6.37;100.00;96126.28;1033835;28;20030;-75
2023/12/03 00:31:44;;;;;;;0.10;0.10;;;;;;;-6.33;100.00;96132.69;1034829;28;20030;-74
2023/12/03 00:32:14;;;;;;;1.13;0.87;;;;;;;-6.33;100.00;96142.09;1030121;28;20034;-74
2023/12/03 00:32:45;;;;;;;0.90;0.90;;;;;;;-6.37;100.00;96143.31;1030941;28;20572;-75
2023/12/03 00:33:15;;;;;;;0.60;0.60;;;;;;;-6.39;100.00;96140.13;1034939;28;20018;-76
2023/12/03 00:33:45;;;;;;;0.00;0.00;;;;;;;-6.43;100.00;96140.41;1030889;28;20034;-75
2023/12/03 00:34:16;;;;;;;1.63;0.63;;;;;;;-6.44;100.00;96141.38;1034579;28;20037;-74
2023/12/03 00:34:47;;;;;;;0.30;0.30;;;;;;;-6.45;100.00;96144.06;1034402;28;20533;-75
2023/12/03 00:35:17;;;;;;;1.07;1.03;;;;;;;-6.44;100.00;96150.75;1030566;28;20030;-75
2023/12/03 00:35:48;;;;;;;0.20;0.20;;;;;;;-6.45;100.00;96144.06;1042290;28;20029;-75
2023/12/03 00:36:18;;;;;;;0.20;0.20;;;;;;;-6.47;100.00;96141.66;1030351;28;20030;-75
2023/12/03 00:36:48;;;;;;;1.03;1.03;;;;;;;-6.52;100.00;96136.19;1034679;28;20108;-75
2023/12/03 00:37:19;;;;;;;0.30;0.30;;;;;;;-6.47;100.00;96144.22;1038323;28;20106;-74
2023/12/03 00:37:49;;;;;;;0.13;0.13;;;;;;;-6.48;100.00;96139.25;1034799;28;20533;-76
2023/12/03 00:38:20;;;;;;;0.20;0.20;;;;;;;-6.48;100.00;96145.16;1034528;28;20433;-75
2023/12/03 00:38:50;;;;;;;0.37;0.37;;;;;;;-6.48;100.00;96155.34;1026474;28;20042;-75
2023/12/03 00:39:21;;;;;;;1.40;1.30;;;;;;;-6.48;100.00;96145.16;1026596;28;20042;-74
2023/12/03 00:39:51;;;;;;;1.53;1.43;;;;;;;-6.46;100.00;96148.38;1030402;28;20548;-75
2023/12/03 00:40:22;;;;;;;0.40;0.40;;;;;;;-6.51;100.00;96147.97;1030537;28;20014;-75
2023/12/03 00:40:52;;;;;;;0.57;0.57;;;;;;;-6.48;100.00;96150.25;1031025;28;20022;-75
2023/12/03 00:41:22;;;;;;;0.93;0.93;;;;;;;-6.48;100.00;96152.81;1030316;28;20082;-74
2023/12/03 00:41:53;;;;;;;0.70;0.70;;;;;;;-6.45;100.00;96149.97;1026387;28;20066;-75
2023/12/03 00:42:23;;;;;;;0.97;0.97;;;;;;;-6.45;100.00;96159.38;1026780;28;20466;-75
2023/12/03 00:42:54;;;;;;;0.10;0.10;;;;;;;-6.45;100.00;96149.97;1030498;28;20065;-76
2023/12/03 00:43:24;;;;;;;0.20;0.20;;;;;;;-6.51;100.00;96150.53;1026794;28;20022;-75
2023/12/03 00:43:55;;;;;;;1.70;1.33;;;;;;;-6.46;100.00;96161.13;1034760;28;20022;-76
2023/12/03 00:44:25;;;;;;;1.43;1.30;;;;;;;-6.47;100.00;96154.44;1030725;28;20018;-75
2023/12/03 00:44:56;;;;;;;0.97;0.97;;;;;;;-6.44;100.00;96160.97;1043071;28;20063;-75
2023/12/03 00:45:26;;;;;;;0.20;0.20;;;;;;;-6.46;100.00;96158.56;1038360;28;20017;-76
2023/12/03 00:45:57;;;;;;;0.10;0.10;;;;;;;-6.45;100.00;96155.06;1030987;28;20023;-77
2023/12/03 00:46:28;;;;;;;0.60;0.60;;;;;;;-6.50;100.00;96157.25;1032947;28;20018;-76
2023/12/03 00:46:58;;;;;;;0.60;0.60;;;;;;;-6.43;100.00;96163.38;1038687;28;20111;-74
2023/12/03 00:47:29;;;;;;;0.37;0.37;;;;;;;-6.42;100.00;96164.97;1038939;28;20033;-76
2023/12/03 00:48:01;;;;;;;0.40;0.40;;;;;;;-6.42;100.00;96162.44;1042543;28;20032;-75
2023/12/03 00:48:31;;;;;;;0.47;0.47;;;;;;;-6.41;100.00;96158.13;1034608;28;20100;-75
2023/12/03 00:49:02;;;;;;;0.20;0.20;;;;;;;-6.39;100.00;96158.00;1026684;28;20081;-76
2023/12/03 00:49:32;;;;;;;0.60;0.60;;;;;;;-6.45;100.00;96157.63;1030418;28;20046;-76
2023/12/03 00:50:03;;;;;;;0.33;0.33;;;;;;;-6.42;100.00;96153.97;1038702;28;20052;-76
2023/12/03 00:50:34;;;;;;;1.27;0.95;;;;;;;-6.41;100.00;96166.56;1026517;28;20030;-75
2023/12/03 00:51:04;;;;;;;0.47;0.47;;;;;;;-6.42;100.00;96164.97;1030475;28;20050;-75
2023/12/03 00:51:35;;;;;;;0.10;0.10;;;;;;;-6.42;100.00;96167.53;1030727;28;20533;-76
2023/12/03 00:52:05;;;;;;;2.00;1.60;;;;;;;-6.45;100.00;96170.38;1037966;28;20121;-76
2023/12/03 00:52:36;;;;;;;0.10;0.10;;;;;;;-6.47;100.00;96166.34;1034672;28;20014;-75
2023/12/03 00:53:06;;;;;;;0.20;0.20;;;;;;;-6.43;100.00;96173.59;1026573;28;20618;-75
2023/12/03 00:53:37;;;;;;;1.60;0.30;;;;;;;-6.43;100.00;96168.50;1038590;28;20100;-76
2023/12/03 00:54:08;;;;;;;0.00;0.00;;;;;;;-6.39;100.00;96175.84;1042926;28;20021;-76
2023/12/03 00:54:38;;;;;;;0.40;0.40;;;;;;;-6.42;100.00;96175.19;1034431;28;20069;-75
2023/12/03 00:55:09;;;;;;;0.83;0.83;;;;;;;-6.38;100.00;96177.47;1030310;28;20042;-76
2023/12/03 00:55:39;;;;;;;0.53;0.53;;;;;;;-6.42;100.00;96174.41;1034794;28;20026;-75
2023/12/03 00:56:10;;;;;;;0.50;0.40;;;;;;;-6.39;100.00;96178.41;1030512;28;20089;-75
2023/12/03 00:56:40;;;;;;;0.40;0.40;;;;;;;-6.38;100.00;96180.81;1030331;28;20026;-76
2023/12/03 00:57:11;;;;;;;0.13;0.13;;;;;;;-6.44;100.00;96172.00;1030726;28;20465;-75
2023/12/03 00:57:41;;;;;;;0.23;0.23;;;;;;;-6.43;100.00;96167.69;1034426;28;20025;-75
2023/12/03 00:58:12;;;;;;;0.23;0.23;;;;;;;-6.36;100.00;96184.03;1026500;28;20077;-76
2023/12/03 00:58:42;;;;;;;0.60;0.57;;;;;;;-6.36;100.00;96173.81;1030537;28;20034;-75
2023/12/03 00:59:13;;;;;;;0.73;0.57;;;;;;;-6.37;100.00;96177.31;1034577;28;20034;-76
2023/12/03 00:59:43;;;;;;;0.73;0.73;;;;;;;-6.36;100.00;96178.13;1038841;28;20441;-76
2023/12/03 01:00:14;;;;;;;0.07;0.07;;;;;;;-6.37;100.00;96179.88;1030357;28;20027;-75
2023/12/03 01:00:44;;;;;;;0.55;0.55;;;;;;;-6.42;100.00;96174.41;1030404;28;20038;-76
2023/12/03 01:01:15;;;;;;;1.60;1.50;;;;;;;-6.43;100.00;96172.81;1034949;28;20033;-76
2023/12/03 01:01:45;;;;;;;1.03;0.93;;;;;;;-6.39;100.00;96180.97;1034739;28;20033;-74
2023/12/03 01:02:16;;;;;;;0.57;0.57;;;;;;;-6.37;100.00;96179.06;1038032;28;20026;-75
2023/12/03 01:02:46;;;;;;;1.53;1.37;;;;;;;-6.38;100.00;96185.13;1039061;28;20021;-75
2023/12/03 01:03:17;;;;;;;2.53;2.33;;;;;;;-6.37;100.00;96184.16;1042687;28;20036;-75
2023/12/03 01:03:47;;;;;;;0.30;0.30;;;;;;;-6.38;100.00;96185.13;1042809;28;20033;-75
2023/12/03 01:04:18;;;;;;;0.50;0.50;;;;;;;-6.37;100.00;96186.72;1038439;28;20433;-76
2023/12/03 01:04:49;;;;;;;0.10;0.10;;;;;;;-6.38;100.00;96183.34;1034459;28;20507;-76
2023/12/03 01:05:19;;;;;;;0.13;0.13;;;;;;;-6.44;100.00;96172.00;1034802;28;20030;-75
2023/12/03 01:05:50;;;;;;;0.60;0.60;;;;;;;-6.38;100.00;96185.91;1034801;28;20026;-76
2023/12/03 01:06:20;;;;;;;0.30;0.30;;;;;;;-6.39;100.00;96183.53;1042616;28;20025;-75
2023/12/03 01:06:50;;;;;;;0.73;0.73;;;;;;;-6.41;100.00;96187.00;1047298;28;20025;-75
2023/12/03 01:07:21;;;;;;;0.77;0.77;;;;;;;-6.37;100.00;96186.72;1046627;28;20025;-75
2023/12/03 01:07:51;;;;;;;1.80;0.43;;;;;;;-6.39;100.00;96188.63;1038944;28;20412;-75
2023/12/03 01:08:22;;;;;;;0.10;0.10;;;;;;;-6.42;100.00;96187.97;1030234;28;20023;-75
2023/12/03 01:08:52;;;;;;;0.20;0.20;;;;;;;-6.43;100.00;96190.66;1030469;28;20037;-75
2023/12/03 01:09:23;;;;;;;0.10;0.10;;;;;;;-6.43;100.00;96188.13;1034764;28;20131;-75
2023/12/03 01:09:53;;;;;;;2.93;0.43;;;;;;;-6.46;100.00;96189.19;1038779;28;20021;-75
2023/12/03 01:10:24;;;;;;;0.63;0.63;;;;;;;-6.46;100.00;96191.75;1042292;28;20024;-75
2023/12/03 01:10:54;;;;;;;0.97;0.90;;;;;;;-6.52;100.00;96177.00;1038860;28;20064;-75
2023/12/03 01:11:25;;;;;;;0.20;0.20;;;;;;;-6.50;100.00;96184.53;1042581;28;20524;-75
2023/12/03 01:11:57;;;;;;;0.30;0.30;;;;;;;-6.49;100.00;96193.78;1038310;28;20025;-75
2023/12/03 01:12:28;;;;;;;1.27;1.13;;;;;;;-6.52;100.00;96196.63;1038375;28;20033;-75
2023/12/03 01:12:59;;;;;;;0.50;0.50;;;;;;;-6.56;100.00;96193.56;1038034;28;20422;-74
2023/12/03 01:13:29;;;;;;;1.07;1.07;;;;;;;-6.58;100.00;96195.44;1039172;28;20029;-75
2023/12/03 01:14:00;;;;;;;0.40;0.40;;;;;;;-6.60;100.00;96182.06;1042422;28;20029;-75
2023/12/03 01:14:30;;;;;;;0.00;0.00;;;;;;;-6.66;100.00;96182.63;1038609;28;20068;-75
2023/12/03 01:15:01;;;;;;;0.83;0.83;;;;;;;-6.71;100.00;96184.78;1038850;28;20622;-76
2023/12/03 01:15:31;;;;;;;0.30;0.30;;;;;;;-6.72;100.00;96188.31;1038551;28;20075;-76
2023/12/03 01:16:02;;;;;;;0.73;0.73;;;;;;;-6.74;100.00;96190.19;1030426;28;20538;-75
2023/12/03 01:16:33;;;;;;;1.23;1.13;;;;;;;-6.75;100.00;96193.69;1026317;28;20077;-75
2023/12/03 01:17:03;;;;;;;0.83;0.77;;;;;;;-6.76;100.00;96192.09;1026259;28;20499;-75
2023/12/03 01:17:34;;;;;;;0.60;0.50;;;;;;;-6.77;100.00;96191.28;1030609;28;20050;-75
2023/12/03 01:18:04;;;;;;;1.43;1.33;;;;;;;-6.77;100.00;96193.03;1034441;28;20036;-75
2023/12/03 01:18:35;;;;;;;0.10;0.10;;;;;;;-6.84;100.00;96189.44;1030429;28;20116;-75
2023/12/03 01:19:05;;;;;;;0.10;0.10;;;;;;;-6.80;100.00;96198.44;1035782;28;20089;-75
2023/12/03 01:19:36;;;;;;;2.30;2.10;;;;;;;-6.81;100.00;96210.38;1030458;28;20069;-75
2023/12/03 01:20:07;;;;;;;0.10;0.10;;;;;;;-6.82;100.00;96210.53;1034702;28;20031;-75
2023/12/03 01:20:38;;;;;;;0.35;0.35;;;;;;;-6.82;100.00;96207.97;1034415;28;20625;-75
2023/12/03 01:21:08;;;;;;;1.45;0.65;;;;;;;-6.89;100.00;96200.88;1034657;28;20525;-75
2023/12/03 01:21:39;;;;;;;1.60;0.83;;;;;;;-6.90;100.00;96195.94;1038802;28;20079;-75
2023/12/03 01:22:09;;;;;;;0.20;0.20;;;;;;;-6.89;100.00;96205.19;1038123;28;20025;-75
2023/12/03 01:22:39;;;;;;;0.23;0.23;;;;;;;-6.88;100.00;96204.22;1034241;28;20030;-75
2023/12/03 01:23:10;;;;;;;1.03;1.03;;;;;;;-6.81;100.00;96217.22;1034725;28;20034;-75
2023/12/03 01:23:40;;;;;;;1.40;1.27;;;;;;;-6.84;100.00;96214.94;1038285;28;20013;-75
2023/12/03 01:24:11;;;;;;;0.00;0.00;;;;;;;-6.84;100.00;96214.94;1030664;28;20056;-75
2023/12/03 01:24:41;;;;;;;0.40;0.40;;;;;;;-6.82;100.00;96223.28;1030462;28;20506;-75
2023/12/03 01:25:12;;;;;;;1.23;1.23;;;;;;;-6.92;100.00;96211.38;1027063;28;20114;-75
2023/12/03 01:25:42;;;;;;;1.87;1.77;;;;;;;-6.91;100.00;96210.44;1026992;28;20589;-75
2023/12/03 01:26:13;;;;;;;0.30;0.30;;;;;;;-6.95;100.00;96219.28;1038715;28;20017;-75
2023/12/03 01:26:43;;;;;;;0.20;0.20;;;;;;;-6.97;100.00;96217.84;1034590;28;20024;-75
2023/12/03 01:27:14;;;;;;;0.70;0.70;;;;;;;-7.02;100.00;96213.16;1030917;28;20769;-75
2023/12/03 01:27:44;;;;;;;0.43;0.43;;;;;;;-7.02;100.00;96208.06;1030332;28;20034;-76
2023/12/03 01:28:19;;;;;;;0.63;0.63;;;;;;;-7.08;100.00;96213.72;1039137;28;20033;-76
2023/12/03 01:28:52;;;;;;;0.10;0.10;;;;;;;-7.07;100.00;96219.66;1038701;28;20022;-75
2023/12/03 01:29:23;;;;;;;0.80;0.65;;;;;;;-7.04;100.00;96230.38;1030223;28;20449;-75
2023/12/03 01:29:53;;;;;;;0.10;0.10;;;;;;;-7.08;100.00;96220.56;1018729;29;20024;-76
2023/12/03 01:30:24;;;;;;;5.50;1.97;;;;;;;-7.03;100.00;96229.41;1022400;29;20494;-75
2023/12/03 01:30:54;;;;;;;0.10;0.10;;;;;;;-7.07;100.00;96222.19;1034778;28;20549;-76
2023/12/03 01:31:25;;;;;;;0.30;0.30;;;;;;;-7.03;100.00;96226.88;1038929;28;20079;-75
2023/12/03 01:31:55;;;;;;;0.53;0.53;;;;;;;-7.03;100.00;96226.88;1030386;28;20030;-76
2023/12/03 01:32:26;;;;;;;6.10;1.07;;;;;;;-7.01;100.00;96227.50;1034087;28;20429;-76
2023/12/03 01:32:56;;;;;;;1.00;1.00;;;;;;;-7.02;100.00;96231.00;1034190;28;20022;-76
2023/12/03 01:33:27;;;;;;;0.23;0.23;;;;;;;-7.03;100.00;96223.53;1038267;28;20025;-75
2023/12/03 01:33:57;;;;;;;2.47;2.27;;;;;;;-7.01;100.00;96224.16;1034720;28;20534;-75
2023/12/03 01:34:28;;;;;;;1.13;1.03;;;;;;;-6.97;100.00;96228.84;1023962;28;20344;-75
2023/12/03 01:34:58;;;;;;;0.67;0.67;;;;;;;-7.01;100.00;96219.06;1034288;28;20021;-74
2023/12/03 01:35:29;;;;;;;0.07;0.07;;;;;;;-7.06;100.00;96211.84;1030606;28;20604;-76
2023/12/03 01:35:59;;;;;;;0.10;0.10;;;;;;;-6.92;100.00;96225.88;1034171;28;20026;-74
2023/12/03 01:36:30;;;;;;;0.40;0.40;;;;;;;-6.91;100.00;96230.84;1034901;28;20018;-75
2023/12/03 01:37:01;;;;;;;0.47;0.22;;;;;;;-6.89;100.00;96236.59;1034566;28;20018;-75
2023/12/03 01:37:32;;;;;;;0.10;0.10;;;;;;;-6.89;100.00;96228.94;1034520;28;20033;-76
2023/12/03 01:38:02;;;;;;;1.07;1.07;;;;;;;-6.84;100.00;96235.34;1033757;28;20057;-75
2023/12/03 01:38:33;;;;;;;0.20;0.20;;;;;;;-6.82;100.00;96228.38;1030487;28;20014;-75
2023/12/03 01:39:05;;;;;;;0.50;0.50;;;;;;;-6.86;100.00;96227.06;1030327;28;20046;-75
2023/12/03 01:39:35;;;;;;;0.70;0.70;;;;;;;-6.82;100.00;96228.38;1034794;28;20030;-75
2023/12/03 01:40:07;;;;;;;0.63;0.63;;;;;;;-6.79;100.00;96234.00;1034688;28;20033;-75
2023/12/03 01:40:38;;;;;;;1.52;1.42;;;;;;;-6.77;100.00;96227.00;1036364;28;20041;-75
2023/12/03 01:41:08;;;;;;;2.17;2.03;;;;;;;-6.80;100.00;96226.50;1036373;28;20401;-75
2023/12/03 01:41:38;;;;;;;2.67;1.10;;;;;;;-6.74;100.00;96236.09;1037009;28;20061;-74
2023/12/03 01:42:09;;;;;;;0.87;0.40;;;;;;;-6.77;100.00;96229.56;1044501;28;20060;-75
2023/12/03 01:42:39;;;;;;;1.30;1.30;;;;;;;-6.74;100.00;96239.50;1028400;28;20023;-74
2023/12/03 01:43:10;;;;;;;0.10;0.10;;;;;;;-6.73;100.00;96240.28;1035940;28;20022;-75
2023/12/03 01:43:50;;;;;;;1.60;1.50;;;;;;;-6.72;100.00;96239.34;1034990;28;20025;-74
2023/12/03 01:44:21;;;;;;;0.88;0.88;;;;;;;-6.70;100.00;96237.44;1038291;28;20076;-75
2023/12/03 01:44:51;;;;;;;1.40;1.30;;;;;;;-6.71;100.00;96239.16;1035543;28;20475;-75
2023/12/03 01:45:22;;;;;;;0.20;0.20;;;;;;;-6.71;100.00;96235.81;1027241;28;20015;-76
2023/12/03 01:45:52;;;;;;;0.07;0.07;;;;;;;-6.68;100.00;96243.19;1030971;28;20434;-75
2023/12/03 01:46:23;;;;;;;0.97;0.93;;;;;;;-6.69;100.00;96246.69;1030980;28;20144;-75
2023/12/03 01:46:54;;;;;;;1.40;0.93;;;;;;;-6.71;100.00;96231.53;1034415;28;20026;-76
2023/12/03 01:47:24;;;;;;;0.00;0.00;;;;;;;-6.74;100.00;96231.84;1038911;28;20021;-75
2023/12/03 01:47:55;;;;;;;0.40;0.40;;;;;;;-6.74;100.00;96228.44;1042660;28;20495;-76
2023/12/03 01:48:26;;;;;;;0.30;0.20;;;;;;;-6.65;100.00;96241.16;1042626;28;20025;-75
2023/12/03 01:48:56;;;;;;;0.77;0.77;;;;;;;-6.66;100.00;96244.66;1042825;28;20524;-75
2023/12/03 01:49:27;;;;;;;1.10;1.10;;;;;;;-6.65;100.00;96237.81;1034281;28;20064;-75
2023/12/03 01:50:00;;;;;;;0.63;0.63;;;;;;;-6.63;100.00;96243.59;1034229;28;20022;-75
2023/12/03 01:50:31;;;;;;;1.05;1.05;;;;;;;-6.70;100.00;96237.44;1030478;28;20019;-76
2023/12/03 01:51:01;;;;;;;0.50;0.50;;;;;;;-6.64;100.00;96241.97;1038510;28;20079;-75
2023/12/03 01:51:32;;;;;;;0.63;0.63;;;;;;;-6.66;100.00;96241.31;1034367;28;20022;-75
2023/12/03 01:52:03;;;;;;;1.15;1.15;;;;;;;-6.65;100.00;96240.34;1033683;28;20018;-75
2023/12/03 01:52:34;;;;;;;0.80;0.80;;;;;;;-6.63;100.00;96248.69;1034419;28;20105;-76
2023/12/03 01:53:05;;;;;;;0.80;0.80;;;;;;;-6.63;100.00;96253.00;1026447;28;20149;-76
2023/12/03 01:53:39;;;;;;;0.10;0.10;;;;;;;-6.63;100.00;96238.47;1026469;28;20450;-76
2023/12/03 01:54:10;;;;;;;0.68;0.63;;;;;;;-6.63;100.00;96241.03;1042733;28;20044;-75
2023/12/03 01:54:43;;;;;;;1.27;1.17;;;;;;;-6.59;100.00;96254.31;1034341;28;20061;-75
2023/12/03 01:55:13;;;;;;;0.88;0.88;;;;;;;-6.57;100.00;96253.22;1035426;28;20030;-75
2023/12/03 01:55:44;;;;;;;0.00;0.00;;;;;;;-6.56;100.00;96254.03;1034445;28;20567;-75
2023/12/03 01:56:15;;;;;;;0.27;0.27;;;;;;;-6.55;100.00;96256.41;1030841;28;20020;-75
2023/12/03 01:56:46;;;;;;;0.45;0.45;;;;;;;-6.53;100.00;96258.84;1030289;28;20019;-75
2023/12/03 01:57:17;;;;;;;0.25;0.20;;;;;;;-6.60;100.00;96250.97;1030523;28;20046;-75
2023/12/03 01:57:47;;;;;;;6.33;1.80;;;;;;;-6.54;100.00;96259.75;1030316;28;20018;-76
2023/12/03 01:58:18;;;;;;;0.67;0.67;;;;;;;-6.52;100.00;96258.69;1030425;28;20022;-76
2023/12/03 01:58:48;;;;;;;0.33;0.33;;;;;;;-6.53;100.00;96262.19;1034459;28;20010;-75
2023/12/03 01:59:19;;;;;;;1.13;0.83;;;;;;;-6.51;100.00;96260.28;1030285;28;20034;-74
2023/12/03 01:59:49;;;;;;;2.50;0.63;;;;;;;-6.51;100.00;96262.84;1034866;28;20029;-76
2023/12/03 02:00:20;;;;;;;1.40;1.17;;;;;;;-6.51;100.00;96267.94;1029987;28;20022;-75
2023/12/03 02:00:50;;;;;;;0.50;0.50;;;;;;;-6.52;100.00;96256.13;1030327;28;20022;-74
2023/12/03 02:01:21;;;;;;;0.20;0.20;;;;;;;-6.54;100.00;96250.38;1030660;28;20037;-75
2023/12/03 02:01:51;;;;;;;0.57;0.50;;;;;;;-6.49;100.00;96262.72;1026069;28;20081;-75
2023/12/03 02:02:22;;;;;;;0.57;0.57;;;;;;;-6.52;100.00;96261.25;1026445;28;20050;-75
2023/12/03 02:02:52;;;;;;;0.63;0.63;;;;;;;-6.49;100.00;96255.84;1034554;28;20080;-76
2023/12/03 02:03:23;;;;;;;0.80;0.77;;;;;;;-6.49;100.00;96260.94;1034553;28;20022;-76
2023/12/03 02:03:53;;;;;;;0.70;0.70;;;;;;;-6.46;100.00;96270.88;1034689;28;20030;-75
2023/12/03 02:04:24;;;;;;;0.33;0.33;;;;;;;-6.49;100.00;96260.94;1030247;28;20031;-74
2023/12/03 02:04:54;;;;;;;0.60;0.60;;;;;;;-6.49;100.00;96250.75;1030519;28;20401;-76
2023/12/03 02:05:25;;;;;;;0.73;0.73;;;;;;;-6.48;100.00;96260.00;1034742;28;20034;-75
2023/12/03 02:06:05;;;;;;;2.10;0.93;;;;;;;-6.47;100.00;96258.25;1034660;28;20417;-75
2023/12/03 02:06:36;;;;;;;;;;;;;;;-6.45;100.00;96256.38;1039310;28;20065;-76
2023/12/03 02:07:06;;;;;;;0.93;0.93;;;;;;;-6.45;100.00;96257.16;1037392;28;19905;-75
2023/12/03 02:07:36;;;;;;;0.50;0.50;;;;;;;-6.43;100.00;96259.59;1042675;28;20119;-76
2023/12/03 02:08:07;;;;;;;0.10;0.10;;;;;;;-6.46;100.00;96263.22;1034871;28;20038;-75
2023/12/03 02:08:37;;;;;;;0.47;0.47;;;;;;;-6.45;100.00;96253.81;1034337;28;20474;-76
2023/12/03 02:09:08;;;;;;;0.40;0.40;;;;;;;-6.47;100.00;96248.03;1030473;28;20037;-76
2023/12/03 02:09:38;;;;;;;0.10;0.10;;;;;;;-6.42;100.00;96254.31;1030223;28;20026;-75
2023/12/03 02:10:09;;;;;;;3.50;2.67;;;;;;;-6.45;100.00;96251.25;1038334;28;20029;-75
2023/12/03 02:10:39;;;;;;;0.87;0.63;;;;;;;-6.42;100.00;96261.19;1034330;28;20519;-76
2023/12/03 02:11:10;;;;;;;1.20;1.13;;;;;;;-6.42;100.00;96254.31;1026421;28;20034;-75
2023/12/03 02:11:40;;;;;;;1.13;1.00;;;;;;;-6.44;100.00;96242.66;1030207;28;20022;-75
2023/12/03 02:12:11;;;;;;;1.43;1.33;;;;;;;-6.39;100.00;96252.44;1042322;28;20032;-75
2023/12/03 02:12:41;;;;;;;0.73;0.73;;;;;;;-6.38;100.00;96257.38;1030167;28;20421;-76
2023/12/03 02:13:12;;;;;;;0.30;0.30;;;;;;;-6.36;100.00;96254.72;1030422;28;20026;-76
2023/12/03 02:13:42;;;;;;;6.87;3.20;;;;;;;-6.38;100.00;96251.50;1042694;28;20051;-76
2023/12/03 02:14:13;;;;;;;0.97;0.97;;;;;;;-6.39;100.00;96240.47;1042422;28;20021;-76
2023/12/03 02:14:44;;;;;;;0.00;0.00;;;;;;;-6.37;100.00;96250.53;1034708;28;20034;-76
2023/12/03 02:15:14;;;;;;;0.23;0.23;;;;;;;-6.35;100.00;96252.00;1030554;28;20030;-76
2023/12/03 02:15:45;;;;;;;2.20;0.83;;;;;;;-6.37;100.00;96248.81;1034220;28;20409;-75
2023/12/03 02:16:16;;;;;;;2.10;2.00;;;;;;;-6.36;100.00;96252.16;1030929;28;20011;-76
2023/12/03 02:16:47;;;;;;;0.30;0.30;;;;;;;-6.34;100.00;96261.25;1034161;28;20164;-76
2023/12/03 02:17:18;;;;;;;2.20;1.13;;;;;;;-6.36;100.00;96244.50;1034393;28;20387;-76
2023/12/03 02:17:48;;;;;;;1.73;1.63;;;;;;;-6.35;100.00;96243.53;1026377;28;20418;-76
2023/12/03 02:18:19;;;;;;;0.40;0.40;;;;;;;-6.35;100.00;96254.56;1038312;28;20029;-74
2023/12/03 02:18:49;;;;;;;0.97;0.97;;;;;;;-6.35;100.00;96246.09;1038737;28;20029;-76
2023/12/03 02:19:20;;;;;;;0.27;0.27;;;;;;;-6.31;100.00;96257.63;1042265;28;20033;-75
2023/12/03 02:19:50;;;;;;;0.67;0.67;;;;;;;-6.31;100.00;96262.72;1038520;28;20671;-76
2023/12/03 02:20:21;;;;;;;0.23;0.23;;;;;;;-6.30;100.00;96260.03;1037316;28;20021;-74
2023/12/03 02:20:52;;;;;;;0.10;0.10;;;;;;;-6.29;100.00;96263.38;1038268;28;20722;-74
2023/12/03 02:21:22;;;;;;;0.50;0.50;;;;;;;-6.28;100.00;96257.31;1030381;28;20121;-75
2023/12/03 02:21:53;;;;;;;1.07;0.87;;;;;;;-6.24;100.00;96261.19;1034087;28;20842;-76
2023/12/03 02:22:23;;;;;;;0.20;0.20;;;;;;;-6.24;100.00;96256.09;1033611;28;20018;-75